Las Vegas, Nevada
Traffic Map
Current Weather Conditions
Las Vegas, Nevada
Few Clouds
Few Clouds
21°
Feels Like: 21°
Wind Chill: 21° Ceiling: Unl
Heat Index: 21° Visibility: 10mi
Dew Point: -6° Wind: 3mph
Humidity: 17% Direction: ° ()
Pressure: 30.18in Gusts: 0mph
Raw Report DataKLAS 112056Z VRB03KT 10SM FEW250 21/M06 A3018 RMK AO2 SLP212 T02061056 58025
Traffic Incident Summary
Active as of:
Severity:
Category:
InformationThere was an issue retrieving the traffic information for this location. Please try a different location or try again shortly.
Advertisements
Track Severe Weather on mobile